createdAt,value
2017-08-29T00:01:53.873Z,17.00
2017-08-29T00:04:21.427Z,17.00
2017-08-29T00:06:49.751Z,17.00
2017-08-29T00:09:18.088Z,17.00
2017-08-29T00:11:46.404Z,17.00
2017-08-29T00:14:13.976Z,17.00
2017-08-29T00:16:42.303Z,17.00
2017-08-29T00:19:10.639Z,16.90
2017-08-29T00:21:38.958Z,16.90
2017-08-29T00:24:07.290Z,16.90
2017-08-29T00:26:35.624Z,16.90
2017-08-29T00:29:03.956Z,16.90
2017-08-29T00:31:32.278Z,16.80
2017-08-29T00:34:00.620Z,16.80
2017-08-29T00:36:28.940Z,16.80
2017-08-29T00:38:57.275Z,16.80
2017-08-29T00:41:25.591Z,16.70
2017-08-29T00:43:53.932Z,16.70
2017-08-29T00:46:22.257Z,16.70
2017-08-29T00:48:50.604Z,16.70
2017-08-29T00:51:18.954Z,16.70
2017-08-29T00:53:47.271Z,16.60
2017-08-29T00:56:15.610Z,16.60
2017-08-29T00:58:43.931Z,16.60
2017-08-29T01:01:12.275Z,16.50
2017-08-29T01:03:39.831Z,16.50
2017-08-29T01:06:08.179Z,16.40
2017-08-29T01:08:36.495Z,16.40
2017-08-29T01:11:04.827Z,16.40
2017-08-29T01:13:32.381Z,16.40
2017-08-29T01:16:00.716Z,16.40
2017-08-29T01:18:29.032Z,16.40
2017-08-29T01:20:57.373Z,16.40
2017-08-29T01:23:25.697Z,16.30
2017-08-29T01:25:54.036Z,16.30
2017-08-29T01:28:22.352Z,16.30
2017-08-29T01:30:50.703Z,16.30
2017-08-29T01:33:19.026Z,16.30
2017-08-29T01:35:47.347Z,16.30
2017-08-29T01:38:15.683Z,16.20
2017-08-29T01:40:44.010Z,16.30
2017-08-29T01:43:12.349Z,16.20
2017-08-29T01:45:40.662Z,16.20
2017-08-29T01:48:09.005Z,16.10
2017-08-29T01:50:37.324Z,16.10
2017-08-29T01:53:05.664Z,16.10
2017-08-29T01:55:33.213Z,16.10
2017-08-29T01:58:01.555Z,16.10
2017-08-29T02:00:29.879Z,16.00
2017-08-29T02:02:58.216Z,16.00
2017-08-29T02:05:26.539Z,16.00
2017-08-29T02:07:54.891Z,16.00
2017-08-29T02:10:23.221Z,16.00
2017-08-29T02:12:51.540Z,15.90
2017-08-29T02:15:19.884Z,15.90
2017-08-29T02:17:48.216Z,15.90
2017-08-29T02:20:16.554Z,15.90
2017-08-29T02:22:44.878Z,15.80
2017-08-29T02:25:13.219Z,15.80
2017-08-29T02:27:41.537Z,15.80
2017-08-29T02:30:09.875Z,15.80
2017-08-29T02:32:38.192Z,15.80
2017-08-29T02:35:06.539Z,15.80
2017-08-29T02:37:34.869Z,15.70
2017-08-29T02:40:03.217Z,15.70
2017-08-29T02:42:31.540Z,15.70
2017-08-29T02:44:59.884Z,15.70
2017-08-29T02:47:28.205Z,15.70
2017-08-29T02:49:56.551Z,15.70
2017-08-29T02:52:24.878Z,15.70
2017-08-29T02:54:53.215Z,15.60
2017-08-29T02:57:21.533Z,15.60
2017-08-29T02:59:49.881Z,15.60
2017-08-29T03:02:18.203Z,15.60
2017-08-29T03:04:46.559Z,15.60
2017-08-29T03:07:14.880Z,15.60
2017-08-29T03:09:43.200Z,15.60
2017-08-29T03:12:11.540Z,15.50
2017-08-29T03:14:39.860Z,15.50
2017-08-29T03:17:08.359Z,15.50
2017-08-29T03:19:35.916Z,15.50
2017-08-29T03:22:04.256Z,15.50
2017-08-29T03:24:32.574Z,15.50
2017-08-29T03:27:00.927Z,15.50
2017-08-29T03:29:29.246Z,15.40
2017-08-29T03:31:57.591Z,15.40
2017-08-29T03:34:25.908Z,15.40
2017-08-29T03:36:54.250Z,15.40
2017-08-29T03:39:22.575Z,15.40
2017-08-29T03:41:50.914Z,15.30
2017-08-29T03:44:18.473Z,15.30
2017-08-29T03:46:46.791Z,15.30
2017-08-29T03:49:15.139Z,15.30
2017-08-29T03:51:43.464Z,15.30
2017-08-29T03:54:11.802Z,15.30
2017-08-29T03:56:40.117Z,15.20
2017-08-29T03:59:08.459Z,15.20
2017-08-29T04:01:36.791Z,15.20
2017-08-29T04:04:05.127Z,15.10
2017-08-29T04:06:33.454Z,15.10
2017-08-29T04:09:01.788Z,15.10
2017-08-29T04:11:30.107Z,15.10
2017-08-29T04:13:58.443Z,15.10
2017-08-29T04:16:26.760Z,15.10
2017-08-29T04:18:55.113Z,15.10
2017-08-29T04:21:23.444Z,15.10
2017-08-29T04:23:51.763Z,15.10
2017-08-29T04:26:20.100Z,15.10
2017-08-29T04:28:48.421Z,15.00
2017-08-29T04:31:16.758Z,15.00
2017-08-29T04:33:45.080Z,15.00
2017-08-29T04:36:13.419Z,15.00
2017-08-29T04:38:41.740Z,15.00
2017-08-29T04:41:10.091Z,15.00
2017-08-29T04:43:38.407Z,15.00
2017-08-29T04:46:06.758Z,15.00
2017-08-29T04:48:35.083Z,15.00
2017-08-29T04:51:03.420Z,15.00
2017-08-29T04:53:31.739Z,15.00
2017-08-29T04:56:00.055Z,15.00
2017-08-29T04:58:28.394Z,15.00
2017-08-29T05:00:56.720Z,15.00
2017-08-29T05:03:25.078Z,15.10
2017-08-29T05:05:53.397Z,15.10
2017-08-29T05:08:21.737Z,15.10
2017-08-29T05:10:50.071Z,15.10
2017-08-29T05:13:18.415Z,15.20
2017-08-29T05:15:46.732Z,15.20
2017-08-29T05:18:15.071Z,15.30
2017-08-29T05:20:43.384Z,15.40
2017-08-29T05:23:11.724Z,15.50
2017-08-29T05:25:40.040Z,15.50
2017-08-29T05:28:08.391Z,15.60
2017-08-29T05:30:36.699Z,15.60
2017-08-29T05:33:05.020Z,15.70
2017-08-29T05:35:33.362Z,15.80
2017-08-29T05:38:01.675Z,15.80
2017-08-29T05:40:30.023Z,15.90
2017-08-29T05:42:58.343Z,15.90
2017-08-29T05:45:26.678Z,16.00
2017-08-29T05:47:54.990Z,16.10
2017-08-29T05:50:23.322Z,16.20
2017-08-29T05:52:51.641Z,16.30
2017-08-29T05:55:19.971Z,16.40
2017-08-29T05:57:48.285Z,16.50
2017-08-29T06:00:16.608Z,16.50
2017-08-29T06:02:44.960Z,16.60
2017-08-29T06:05:13.272Z,16.70
2017-08-29T06:07:41.611Z,16.80
2017-08-29T06:10:09.923Z,16.90
2017-08-29T06:12:38.259Z,17.10
2017-08-29T06:15:06.566Z,17.20
2017-08-29T06:17:34.904Z,17.30
2017-08-29T06:20:03.217Z,17.50
2017-08-29T06:22:31.551Z,17.60
2017-08-29T06:24:59.866Z,17.70
2017-08-29T06:27:28.191Z,17.80
2017-08-29T06:29:56.505Z,17.90
2017-08-29T06:32:24.851Z,18.00
2017-08-29T06:34:53.158Z,18.20
2017-08-29T06:37:21.480Z,18.30
2017-08-29T06:39:49.815Z,18.40
2017-08-29T06:42:18.128Z,18.50
2017-08-29T06:44:46.470Z,18.60
2017-08-29T06:47:14.780Z,18.70
2017-08-29T06:49:43.112Z,18.90
2017-08-29T06:52:11.444Z,19.10
2017-08-29T06:54:39.787Z,19.20
2017-08-29T06:57:08.105Z,19.40
2017-08-29T06:59:36.445Z,19.50
2017-08-29T07:02:04.757Z,19.70
2017-08-29T07:04:32.332Z,19.70
2017-08-29T07:07:00.644Z,20.00
2017-08-29T07:09:28.970Z,20.10
2017-08-29T07:11:57.284Z,20.20
2017-08-29T07:14:25.630Z,20.40
2017-08-29T07:16:53.956Z,20.60
2017-08-29T07:19:22.267Z,20.80
2017-08-29T07:21:50.622Z,21.00
2017-08-29T07:24:18.936Z,21.10
2017-08-29T07:26:47.273Z,21.30
2017-08-29T07:29:14.824Z,21.30
2017-08-29T07:31:43.159Z,21.70
2017-08-29T07:34:11.476Z,21.90
2017-08-29T07:36:39.039Z,21.90
2017-08-29T07:39:07.353Z,22.30
2017-08-29T07:41:35.687Z,22.50
2017-08-29T07:44:03.999Z,22.70
2017-08-29T07:46:32.330Z,22.90
2017-08-29T07:49:00.643Z,23.10
2017-08-29T07:51:28.986Z,23.20
2017-08-29T07:53:57.311Z,23.40
2017-08-29T07:56:25.659Z,23.60
2017-08-29T07:58:53.971Z,23.70
2017-08-29T08:01:22.288Z,23.90
2017-08-29T08:03:50.634Z,24.00
2017-08-29T08:06:18.952Z,24.10
2017-08-29T08:08:47.295Z,24.30
2017-08-29T08:11:15.680Z,24.40
2017-08-29T08:13:44.033Z,24.60
2017-08-29T08:16:12.363Z,24.80
2017-08-29T08:18:40.708Z,25.00
2017-08-29T08:21:09.031Z,25.10
2017-08-29T08:23:37.373Z,25.30
2017-08-29T08:26:05.696Z,25.50
2017-08-29T08:28:34.028Z,25.60
2017-08-29T08:31:02.343Z,25.80
2017-08-29T08:33:29.915Z,25.80
2017-08-29T08:35:58.224Z,26.20
2017-08-29T08:38:26.570Z,26.30
2017-08-29T08:40:54.883Z,26.60
2017-08-29T08:43:23.215Z,26.70
2017-08-29T08:45:51.528Z,26.90
2017-08-29T08:48:19.872Z,27.10
2017-08-29T08:50:48.187Z,27.20
2017-08-29T08:53:16.539Z,27.30
2017-08-29T08:55:44.852Z,27.40
2017-08-29T08:58:13.176Z,27.50
2017-08-29T09:00:40.750Z,27.50
2017-08-29T09:03:09.070Z,27.70
2017-08-29T09:05:37.411Z,27.80
2017-08-29T09:08:05.727Z,27.90
2017-08-29T09:10:33.299Z,27.90
2017-08-29T09:13:01.612Z,28.00
2017-08-29T09:15:29.946Z,28.00
2017-08-29T09:17:58.259Z,28.10
2017-08-29T09:20:26.595Z,28.20
2017-08-29T09:22:54.910Z,28.30
2017-08-29T09:25:23.251Z,28.40
2017-08-29T09:27:51.568Z,28.50
2017-08-29T09:30:19.906Z,28.50
2017-08-29T09:32:47.456Z,28.50
2017-08-29T09:35:15.812Z,28.90
2017-08-29T09:37:44.176Z,28.90
2017-08-29T09:40:12.487Z,29.10
2017-08-29T09:42:40.863Z,29.30
2017-08-29T09:45:09.188Z,29.30
2017-08-29T09:47:37.523Z,29.20
2017-08-29T09:50:05.075Z,29.20
2017-08-29T09:52:33.448Z,29.30
2017-08-29T09:55:01.769Z,29.40
2017-08-29T09:57:30.165Z,29.50
2017-08-29T09:59:58.480Z,29.60
2017-08-29T10:02:26.819Z,29.70
2017-08-29T10:04:54.395Z,29.60
2017-08-29T10:07:22.732Z,29.90
2017-08-29T10:09:51.071Z,29.90
2017-08-29T10:12:19.701Z,29.90
2017-08-29T10:14:48.012Z,30.10
2017-08-29T10:17:16.362Z,30.20
2017-08-29T10:19:44.678Z,30.30
2017-08-29T10:22:12.992Z,30.40
2017-08-29T10:24:41.335Z,30.40
2017-08-29T10:27:09.656Z,30.50
2017-08-29T10:29:37.225Z,30.50
2017-08-29T10:32:05.547Z,30.60
2017-08-29T10:34:33.885Z,30.50
2017-08-29T10:37:02.202Z,30.10
2017-08-29T10:39:30.707Z,30.00
2017-08-29T10:41:59.259Z,30.20
2017-08-29T10:44:27.595Z,30.50
2017-08-29T10:46:56.181Z,30.60
2017-08-29T10:49:24.523Z,30.70
2017-08-29T10:51:52.854Z,30.80
2017-08-29T10:54:21.207Z,30.90
2017-08-29T10:56:49.515Z,30.80
2017-08-29T10:59:17.828Z,30.60
2017-08-29T11:01:46.179Z,30.50
2017-08-29T11:04:14.495Z,30.60
2017-08-29T11:06:42.823Z,30.80
2017-08-29T11:09:11.140Z,31.10
2017-08-29T11:11:39.483Z,31.50
2017-08-29T11:14:07.799Z,31.70
2017-08-29T11:16:36.129Z,31.50
2017-08-29T11:19:04.440Z,31.20
2017-08-29T11:21:32.779Z,31.10
2017-08-29T11:24:01.095Z,31.20
2017-08-29T11:26:29.436Z,31.30
2017-08-29T11:28:57.748Z,31.60
2017-08-29T11:31:26.084Z,31.50
2017-08-29T11:33:54.392Z,31.50
2017-08-29T11:36:22.727Z,31.40
2017-08-29T11:38:51.073Z,31.40
2017-08-29T11:41:19.391Z,31.80
2017-08-29T11:43:47.747Z,32.10
2017-08-29T11:46:16.068Z,32.30
2017-08-29T11:48:44.422Z,32.30
2017-08-29T11:51:12.740Z,32.40
2017-08-29T11:53:41.080Z,32.50
2017-08-29T11:56:09.412Z,32.60
2017-08-29T11:58:37.762Z,32.60
2017-08-29T12:01:06.622Z,32.70
2017-08-29T12:03:34.971Z,32.70
2017-08-29T12:06:03.299Z,32.70
2017-08-29T12:08:31.618Z,32.70
2017-08-29T12:10:59.954Z,32.80
2017-08-29T12:13:28.273Z,32.80
2017-08-29T12:15:56.603Z,32.80
2017-08-29T12:18:24.920Z,32.70
2017-08-29T12:20:53.268Z,32.60
2017-08-29T12:23:21.579Z,32.60
2017-08-29T12:25:49.958Z,32.60
2017-08-29T12:28:18.273Z,32.70
2017-08-29T12:30:46.611Z,32.70
2017-08-29T12:33:14.926Z,32.80
2017-08-29T12:35:43.263Z,32.90
2017-08-29T12:38:11.595Z,33.00
2017-08-29T12:40:39.936Z,33.30
2017-08-29T12:43:08.255Z,33.50
2017-08-29T12:45:36.600Z,33.50
2017-08-29T12:48:04.907Z,33.60
2017-08-29T12:50:33.222Z,33.60
2017-08-29T12:53:01.550Z,33.50
2017-08-29T12:55:29.871Z,33.50
2017-08-29T12:57:58.264Z,33.50
2017-08-29T13:00:26.576Z,33.70
2017-08-29T13:02:54.912Z,33.70
2017-08-29T13:05:23.224Z,33.70
2017-08-29T13:07:51.561Z,33.70
2017-08-29T13:10:20.856Z,33.80
2017-08-29T13:12:49.196Z,33.90
2017-08-29T13:15:17.516Z,33.80
2017-08-29T13:17:45.852Z,33.90
2017-08-29T13:20:14.208Z,33.80
2017-08-29T13:22:42.564Z,33.90
2017-08-29T13:25:10.871Z,33.90
2017-08-29T13:27:39.195Z,33.80
2017-08-29T13:30:07.527Z,33.70
2017-08-29T13:32:35.066Z,33.70
2017-08-29T13:35:03.404Z,33.50
2017-08-29T13:37:31.711Z,33.50
2017-08-29T13:40:00.040Z,33.70
2017-08-29T13:42:28.351Z,33.80
2017-08-29T13:44:56.687Z,33.80
2017-08-29T13:47:24.999Z,33.90
2017-08-29T13:49:53.339Z,33.80
2017-08-29T13:52:21.651Z,33.60
2017-08-29T13:54:49.978Z,33.30
2017-08-29T13:57:18.299Z,33.30
2017-08-29T13:59:46.631Z,33.30
2017-08-29T14:02:14.962Z,33.50
2017-08-29T14:04:43.273Z,33.70
2017-08-29T14:07:11.601Z,33.40
2017-08-29T14:09:39.907Z,33.40
2017-08-29T14:12:08.240Z,33.60
2017-08-29T14:14:36.560Z,33.50
2017-08-29T14:17:04.892Z,33.50
2017-08-29T14:19:33.205Z,33.50
2017-08-29T14:22:01.532Z,33.50
2017-08-29T14:24:29.855Z,33.50
2017-08-29T14:26:58.196Z,33.50
2017-08-29T14:29:26.506Z,33.30
2017-08-29T14:31:54.861Z,33.30
2017-08-29T14:34:23.177Z,33.50
2017-08-29T14:36:51.487Z,33.60
2017-08-29T14:39:19.848Z,33.70
2017-08-29T14:41:48.195Z,33.80
2017-08-29T14:44:16.528Z,33.80
2017-08-29T14:46:56.579Z,33.80
2017-08-29T14:49:24.921Z,33.80
2017-08-29T14:51:53.241Z,33.80
2017-08-29T14:54:21.581Z,33.70
2017-08-29T14:56:49.896Z,33.60
2017-08-29T14:59:18.234Z,33.70
2017-08-29T15:01:46.555Z,33.80
2017-08-29T15:04:14.891Z,33.70
2017-08-29T15:06:43.198Z,33.60
2017-08-29T15:09:11.549Z,33.60
2017-08-29T15:11:39.860Z,33.60
2017-08-29T15:14:08.172Z,33.70
2017-08-29T15:16:36.512Z,33.70
2017-08-29T15:19:04.820Z,33.50
2017-08-29T15:21:33.157Z,33.50
2017-08-29T15:24:01.470Z,33.40
2017-08-29T15:26:29.794Z,33.40
2017-08-29T15:28:58.103Z,33.40
2017-08-29T15:31:26.439Z,33.30
2017-08-29T15:33:54.752Z,33.20
2017-08-29T15:36:23.101Z,33.20
2017-08-29T15:38:51.409Z,33.20
2017-08-29T15:41:19.761Z,33.00
2017-08-29T15:43:48.076Z,32.90
2017-08-29T15:46:16.383Z,32.80
2017-08-29T15:48:44.715Z,32.70
2017-08-29T15:51:13.032Z,32.70
2017-08-29T15:53:41.360Z,32.60
2017-08-29T15:56:09.677Z,32.60
2017-08-29T15:58:38.003Z,32.60
2017-08-29T16:01:06.315Z,32.50
2017-08-29T16:03:34.652Z,32.50
2017-08-29T16:06:02.964Z,32.50
2017-08-29T16:08:31.296Z,32.50
2017-08-29T16:10:59.617Z,32.30
2017-08-29T16:13:27.951Z,32.30
2017-08-29T16:15:56.263Z,32.20
2017-08-29T16:18:24.600Z,32.20
2017-08-29T16:20:52.964Z,32.20
2017-08-29T16:23:21.274Z,32.20
2017-08-29T16:25:49.610Z,32.10
2017-08-29T16:28:17.918Z,31.90
2017-08-29T16:30:46.251Z,31.80
2017-08-29T16:33:13.805Z,31.80
2017-08-29T16:35:42.135Z,31.60
2017-08-29T16:38:10.440Z,31.60
2017-08-29T16:40:38.808Z,31.50
2017-08-29T16:43:07.115Z,31.40
2017-08-29T16:45:35.450Z,31.30
2017-08-29T16:48:03.756Z,31.20
2017-08-29T16:50:32.090Z,31.10
2017-08-29T16:52:59.640Z,31.10
2017-08-29T16:55:27.977Z,30.80
2017-08-29T16:57:56.283Z,30.60
2017-08-29T17:00:24.615Z,30.40
2017-08-29T17:02:52.942Z,30.20
2017-08-29T17:05:21.281Z,30.10
2017-08-29T17:07:49.591Z,30.00
2017-08-29T17:10:17.902Z,30.10
2017-08-29T17:12:46.262Z,30.30
2017-08-29T17:15:14.616Z,30.50
2017-08-29T17:17:42.992Z,30.70
2017-08-29T17:20:11.340Z,30.90
2017-08-29T17:22:39.675Z,30.90
2017-08-29T17:25:08.031Z,30.90
2017-08-29T17:27:36.368Z,30.80
2017-08-29T17:30:04.699Z,30.70
2017-08-29T17:32:33.023Z,30.50
2017-08-29T17:35:00.582Z,30.50
2017-08-29T17:37:28.917Z,30.10
2017-08-29T17:39:57.227Z,29.80
2017-08-29T17:42:25.562Z,29.40
2017-08-29T17:44:53.888Z,28.80
2017-08-29T17:47:22.231Z,28.30
2017-08-29T17:49:50.547Z,27.80
2017-08-29T17:52:18.855Z,27.40
2017-08-29T17:54:47.332Z,27.00
2017-08-29T17:57:15.639Z,26.70
2017-08-29T17:59:43.971Z,26.40
2017-08-29T18:02:12.279Z,26.00
2017-08-29T18:04:40.617Z,25.80
2017-08-29T18:07:08.934Z,25.70
2017-08-29T18:09:37.275Z,25.50
2017-08-29T18:12:05.601Z,25.30
2017-08-29T18:14:33.936Z,25.10
2017-08-29T18:17:02.265Z,24.90
2017-08-29T18:19:30.643Z,24.70
2017-08-29T18:21:58.961Z,24.60
2017-08-29T18:24:26.551Z,24.50
2017-08-29T18:26:54.979Z,24.20
2017-08-29T18:29:23.295Z,24.10
2017-08-29T18:31:51.651Z,23.90
2017-08-29T18:34:19.971Z,23.80
2017-08-29T18:36:48.312Z,23.60
2017-08-29T18:39:16.623Z,23.50
2017-08-29T18:41:45.069Z,23.40
2017-08-29T18:44:13.393Z,23.30
2017-08-29T18:46:41.727Z,23.10
2017-08-29T18:49:10.091Z,23.00
2017-08-29T18:51:38.440Z,22.90
2017-08-29T18:54:06.813Z,22.80
2017-08-29T18:56:35.151Z,22.70
2017-08-29T18:59:03.523Z,22.60
2017-08-29T19:01:31.880Z,22.50
2017-08-29T19:04:00.209Z,22.50
2017-08-29T19:06:28.630Z,22.40
2017-08-29T19:08:56.944Z,22.30
2017-08-29T19:11:25.281Z,22.20
2017-08-29T19:13:53.671Z,22.10
2017-08-29T19:16:26.219Z,22.10
2017-08-29T19:18:54.564Z,22.00
2017-08-29T19:21:22.923Z,21.90
2017-08-29T19:23:51.339Z,21.90
2017-08-29T19:26:19.657Z,21.80
2017-08-29T19:28:48.002Z,21.70
2017-08-29T19:31:16.324Z,21.60
2017-08-29T19:33:44.682Z,21.50
2017-08-29T19:36:13.083Z,21.40
2017-08-29T19:38:41.589Z,21.40
2017-08-29T19:41:09.909Z,21.30
2017-08-29T19:43:38.262Z,21.20
2017-08-29T19:46:06.578Z,21.10
2017-08-29T19:48:34.932Z,21.00
2017-08-29T19:51:03.251Z,21.00
2017-08-29T19:53:30.832Z,20.90
2017-08-29T19:55:59.147Z,20.90
2017-08-29T19:58:27.502Z,20.80
2017-08-29T20:00:55.877Z,20.80
2017-08-29T20:03:24.297Z,20.70
2017-08-29T20:05:52.623Z,20.60
2017-08-29T20:08:20.967Z,20.60
2017-08-29T20:10:49.279Z,20.50
2017-08-29T20:13:17.619Z,20.50
2017-08-29T20:15:45.939Z,20.40
2017-08-29T20:18:14.288Z,20.30
2017-08-29T20:20:42.606Z,20.20
2017-08-29T20:23:11.084Z,20.20
2017-08-29T20:25:39.408Z,20.10
2017-08-29T20:28:07.798Z,20.10
2017-08-29T20:30:36.138Z,20.00
2017-08-29T20:33:04.508Z,20.00
2017-08-29T20:35:32.843Z,19.90
2017-08-29T20:38:01.207Z,19.80
2017-08-29T20:40:29.537Z,19.70
2017-08-29T20:42:57.895Z,19.60
2017-08-29T20:45:26.220Z,19.60
2017-08-29T20:47:54.575Z,19.60
2017-08-29T20:50:22.900Z,19.50
2017-08-29T20:52:51.308Z,19.50
2017-08-29T20:55:19.643Z,19.50
2017-08-29T20:57:47.988Z,19.40
2017-08-29T21:00:16.352Z,19.40
2017-08-29T21:02:44.722Z,19.30
2017-08-29T21:05:13.149Z,19.30
2017-08-29T21:07:41.514Z,19.30
2017-08-29T21:10:09.834Z,19.20
2017-08-29T21:12:38.203Z,19.10
2017-08-29T21:15:06.574Z,19.10
2017-08-29T21:17:34.899Z,19.10
2017-08-29T21:20:03.246Z,19.10
2017-08-29T21:22:31.559Z,19.00
2017-08-29T21:24:59.919Z,19.00
2017-08-29T21:27:28.391Z,18.90
2017-08-29T21:29:56.767Z,18.90
2017-08-29T21:32:25.097Z,18.80
2017-08-29T21:34:53.484Z,18.80
2017-08-29T21:37:21.797Z,18.70
2017-08-29T21:39:50.163Z,18.70
2017-08-29T21:42:18.479Z,18.70
2017-08-29T21:44:46.834Z,18.60
2017-08-29T21:47:15.159Z,18.60
2017-08-29T21:49:42.751Z,18.60
2017-08-29T21:52:11.072Z,18.50
2017-08-29T21:54:39.413Z,18.50
2017-08-29T21:57:07.735Z,18.40
2017-08-29T21:59:36.078Z,18.40
2017-08-29T22:02:04.401Z,18.30
2017-08-29T22:04:32.744Z,18.30
2017-08-29T22:07:01.060Z,18.30
2017-08-29T22:09:29.403Z,18.20
2017-08-29T22:11:57.718Z,18.20
2017-08-29T22:14:26.068Z,18.20
2017-08-29T22:16:54.392Z,18.20
2017-08-29T22:19:22.736Z,18.10
2017-08-29T22:21:51.047Z,18.10
2017-08-29T22:24:19.395Z,18.10
2017-08-29T22:26:47.716Z,18.10
2017-08-29T22:29:16.063Z,18.00
2017-08-29T22:31:44.375Z,17.90
2017-08-29T22:34:12.715Z,17.90
2017-08-29T22:36:41.030Z,17.90
2017-08-29T22:39:09.379Z,17.90
2017-08-29T22:41:37.695Z,17.80
2017-08-29T22:44:06.043Z,17.80
2017-08-29T22:46:34.360Z,17.80
2017-08-29T22:49:02.698Z,17.80
2017-08-29T22:51:31.065Z,17.80
2017-08-29T22:53:59.413Z,17.80
2017-08-29T22:56:27.731Z,17.70
2017-08-29T22:58:56.085Z,17.70
2017-08-29T23:01:24.396Z,17.60
2017-08-29T23:03:51.944Z,17.60
2017-08-29T23:06:20.295Z,17.60
2017-08-29T23:08:48.607Z,17.50
2017-08-29T23:11:16.949Z,17.50
2017-08-29T23:13:45.263Z,17.50
2017-08-29T23:16:13.650Z,17.50
2017-08-29T23:18:41.967Z,17.40
2017-08-29T23:21:10.312Z,17.40
2017-08-29T23:23:38.627Z,17.40
2017-08-29T23:26:06.972Z,17.40
2017-08-29T23:28:35.302Z,17.30
2017-08-29T23:31:03.650Z,17.30
2017-08-29T23:33:32.987Z,17.30
2017-08-29T23:36:01.335Z,17.30
2017-08-29T23:38:29.663Z,17.30
2017-08-29T23:40:58.012Z,17.30
2017-08-29T23:43:26.328Z,17.30
2017-08-29T23:45:54.671Z,17.20
2017-08-29T23:48:22.984Z,17.20
2017-08-29T23:50:51.327Z,17.20
2017-08-29T23:53:18.875Z,17.20
2017-08-29T23:55:47.219Z,17.20
2017-08-29T23:58:15.542Z,17.20
